createdAt,value
2019-05-22T00:31:19.038Z,11.53
2019-05-22T00:33:50.338Z,13.20
2019-05-22T00:36:21.074Z,12.35
2019-05-22T00:38:51.459Z,13.28
2019-05-22T00:56:04.598Z,13.45
2019-05-22T00:58:36.372Z,13.35
2019-05-22T01:01:16.735Z,12.93
2019-05-22T01:03:49.847Z,11.30
2019-05-22T01:06:21.781Z,11.95
2019-05-22T01:08:52.677Z,11.80
2019-05-22T01:11:25.655Z,11.20
2019-05-22T01:13:56.775Z,9.83
2019-05-22T01:16:27.055Z,9.75
2019-05-22T01:18:57.775Z,9.90
2019-05-22T01:21:30.371Z,10.32
2019-05-22T01:24:01.574Z,9.50
2019-05-22T01:31:48.767Z,9.53
2019-05-22T01:34:21.063Z,9.45
2019-05-22T01:36:55.773Z,9.88
2019-05-22T01:39:47.476Z,10.70
2019-05-22T01:42:42.581Z,10.40
2019-05-22T01:45:13.828Z,10.75
2019-05-22T01:50:21.798Z,10.50
2019-05-22T01:52:52.203Z,11.55
2019-05-22T01:55:23.701Z,11.12
2019-05-22T01:57:54.008Z,10.80
2019-05-22T02:00:24.659Z,11.18
2019-05-22T02:02:56.685Z,10.98
2019-05-22T02:05:28.533Z,10.50
2019-05-22T02:07:59.632Z,10.98
2019-05-22T02:10:37.014Z,10.30
2019-05-22T02:13:07.272Z,10.85
2019-05-22T02:15:39.930Z,11.55
2019-05-22T02:18:15.007Z,11.38
2019-05-22T02:20:45.416Z,11.45
2019-05-22T02:23:17.816Z,12.37
2019-05-22T02:25:50.441Z,12.88
2019-05-22T02:28:20.770Z,12.37
2019-05-22T02:30:51.852Z,13.60
2019-05-22T02:33:24.813Z,13.15
2019-05-22T02:35:55.607Z,12.37
2019-05-22T02:38:26.737Z,12.82
2019-05-22T02:40:58.508Z,13.38
2019-05-22T02:43:30.333Z,12.33
2019-05-22T02:46:01.704Z,12.88
2019-05-22T02:51:03.196Z,11.60
2019-05-22T02:53:33.905Z,12.33
2019-05-22T02:56:05.407Z,11.03
2019-05-22T02:58:35.624Z,10.10
2019-05-22T03:01:06.875Z,9.48
2019-05-22T03:03:38.786Z,10.88
2019-05-22T03:06:12.725Z,9.90
2019-05-22T03:08:59.570Z,10.25
2019-05-22T03:11:37.464Z,10.00
2019-05-22T03:14:09.699Z,10.00
2019-05-22T03:16:47.770Z,9.93
2019-05-22T03:19:22.944Z,10.48
2019-05-22T03:21:53.395Z,9.98
2019-05-22T03:24:24.488Z,10.53
2019-05-22T03:26:56.024Z,9.53
2019-05-22T03:29:32.631Z,9.00
2019-05-22T03:32:04.809Z,9.58
2019-05-22T03:34:36.471Z,9.43
2019-05-22T03:37:06.835Z,8.83
2019-05-22T03:39:37.035Z,8.43
2019-05-22T03:42:07.338Z,9.43
2019-05-22T03:44:39.132Z,8.90
2019-05-22T03:47:09.451Z,9.83
2019-05-22T03:49:40.608Z,9.68
2019-05-22T03:52:11.293Z,10.58
2019-05-22T03:54:43.197Z,10.13
2019-05-22T03:57:14.586Z,9.75
2019-05-22T04:00:07.877Z,9.88
2019-05-22T04:02:39.133Z,9.13
2019-05-22T04:05:10.562Z,9.50
2019-05-22T04:07:41.047Z,9.18
2019-05-22T04:10:13.876Z,6.87
2019-05-22T04:12:44.552Z,8.40
2019-05-22T04:15:33.819Z,9.35
2019-05-22T04:18:14.498Z,8.73
2019-05-22T04:20:45.233Z,8.95
2019-05-22T04:23:15.530Z,8.20
2019-05-22T04:25:46.137Z,8.88
2019-05-22T04:28:16.416Z,8.40
2019-05-22T04:30:46.750Z,7.70
2019-05-22T04:33:17.561Z,8.60
2019-05-22T04:35:49.478Z,7.70
2019-05-22T04:38:20.047Z,7.08
2019-05-22T04:40:51.377Z,7.60
2019-05-22T04:46:08.478Z,7.30
2019-05-22T04:48:38.757Z,7.25
2019-05-22T04:51:22.701Z,7.53
2019-05-22T04:53:53.441Z,7.60
2019-05-22T04:56:23.977Z,8.50
2019-05-22T04:58:54.932Z,8.55
2019-05-22T05:01:25.466Z,8.05
2019-05-22T05:03:55.697Z,8.23
2019-05-22T05:06:26.214Z,6.75
2019-05-22T05:08:56.535Z,7.17
2019-05-22T05:11:27.518Z,7.70
2019-05-22T05:13:57.826Z,7.97
2019-05-22T05:16:28.015Z,7.30
2019-05-22T05:18:58.396Z,7.47
2019-05-22T05:21:28.718Z,7.97
2019-05-22T05:23:59.008Z,7.15
2019-05-22T05:26:30.338Z,6.85
2019-05-22T05:31:30.800Z,7.15
2019-05-22T05:34:10.975Z,6.42
2019-05-22T05:36:42.631Z,6.65
2019-05-22T05:39:37.735Z,6.10
2019-05-22T05:42:08.095Z,6.25
2019-05-22T05:44:38.818Z,6.40
2019-05-22T05:47:09.205Z,6.60
2019-05-22T05:49:39.677Z,5.53
2019-05-22T05:52:09.931Z,5.80
2019-05-22T05:54:41.715Z,5.50
2019-05-22T05:57:31.857Z,4.25
2019-05-22T06:00:03.946Z,5.37
2019-05-22T06:02:34.715Z,4.42
2019-05-22T06:05:06.227Z,4.62
2019-05-22T06:07:36.601Z,4.40
2019-05-22T06:10:29.332Z,4.13
2019-05-22T06:13:00.515Z,4.05
2019-05-22T06:18:27.487Z,4.22
2019-05-22T06:21:03.869Z,4.45
2019-05-22T06:23:34.039Z,5.08
2019-05-22T06:26:04.743Z,4.95
2019-05-22T06:28:39.496Z,5.53
2019-05-22T06:31:13.428Z,4.75
2019-05-22T06:33:45.073Z,4.37
2019-05-22T06:36:17.287Z,4.90
2019-05-22T06:38:55.794Z,4.85
2019-05-22T06:41:38.690Z,4.50
2019-05-22T06:44:33.706Z,4.53
2019-05-22T06:47:09.085Z,4.40
2019-05-22T06:49:39.774Z,4.00
2019-05-22T06:52:09.957Z,4.60
2019-05-22T06:54:40.351Z,4.78
2019-05-22T06:57:18.553Z,4.95
2019-05-22T07:00:11.574Z,5.40
2019-05-22T07:02:24.761Z,5.10
2019-05-22T07:04:55.143Z,5.63
2019-05-22T07:07:27.166Z,5.33
2019-05-22T07:09:57.472Z,4.10
2019-05-22T07:12:29.172Z,3.75
2019-05-22T07:15:04.312Z,4.22
2019-05-22T07:17:35.092Z,4.50
2019-05-22T07:20:06.617Z,4.10
2019-05-22T07:22:37.135Z,3.60
2019-05-22T07:25:09.162Z,3.80
2019-05-22T07:27:40.010Z,3.83
2019-05-22T07:30:11.187Z,3.00
2019-05-22T07:32:41.463Z,3.10
2019-05-22T07:35:12.089Z,3.70
2019-05-22T07:37:55.568Z,3.42
2019-05-22T07:40:26.033Z,3.62
2019-05-22T07:42:56.757Z,3.62
2019-05-22T07:45:29.406Z,3.60
2019-05-22T07:48:00.697Z,3.33
2019-05-22T07:50:32.676Z,3.40
2019-05-22T07:53:02.903Z,3.52
2019-05-22T07:55:33.271Z,3.80
2019-05-22T07:58:14.703Z,3.87
2019-05-22T08:00:48.009Z,3.83
2019-05-22T08:03:19.195Z,3.77
2019-05-22T08:05:54.123Z,3.42
2019-05-22T08:08:24.908Z,3.95
2019-05-22T08:10:56.313Z,3.72
2019-05-22T08:13:27.060Z,3.92
2019-05-22T08:15:57.846Z,3.67
2019-05-22T08:18:28.083Z,3.83
2019-05-22T08:20:58.673Z,3.30
2019-05-22T08:23:29.664Z,4.00
2019-05-22T08:28:31.800Z,3.92
2019-05-22T08:31:02.693Z,3.98
2019-05-22T08:33:34.335Z,4.15
2019-05-22T08:36:04.986Z,3.58
2019-05-22T08:38:36.135Z,3.67
2019-05-22T08:41:08.614Z,3.65
2019-05-22T08:43:56.485Z,5.10
2019-05-22T08:46:11.616Z,5.12
2019-05-22T08:48:48.182Z,5.62
2019-05-22T08:51:15.799Z,5.22
2019-05-22T08:53:48.366Z,5.30
2019-05-22T08:56:18.850Z,4.95
2019-05-22T08:58:49.132Z,4.92
2019-05-22T09:01:19.478Z,4.60
2019-05-22T09:03:50.495Z,5.80
2019-05-22T09:06:20.780Z,6.40
2019-05-22T09:08:51.081Z,6.00
2019-05-22T09:11:21.415Z,6.07
2019-05-22T09:13:51.772Z,6.45
2019-05-22T09:16:22.343Z,6.17
2019-05-22T09:18:53.603Z,6.42
2019-05-22T09:21:24.089Z,6.78
2019-05-22T09:23:54.969Z,7.20
2019-05-22T09:26:25.174Z,7.00
2019-05-22T09:28:55.534Z,7.35
2019-05-22T09:31:25.790Z,7.33
2019-05-22T09:33:56.087Z,7.40
2019-05-22T09:36:26.633Z,7.87
2019-05-22T09:38:56.889Z,7.87
2019-05-22T09:41:27.236Z,6.97
2019-05-22T09:43:57.604Z,7.28
2019-05-22T09:46:27.900Z,6.57
2019-05-22T09:48:58.844Z,6.80
2019-05-22T09:51:29.422Z,6.12
2019-05-22T09:54:00.982Z,6.33
2019-05-22T09:56:31.255Z,6.40
2019-05-22T09:59:01.729Z,6.77
2019-05-22T10:01:32.229Z,6.50
2019-05-22T10:04:03.348Z,7.20
2019-05-22T10:09:02.956Z,6.42
2019-05-22T10:11:33.677Z,6.53
2019-05-22T10:14:05.346Z,6.37
2019-05-22T10:16:35.640Z,6.33
2019-05-22T10:19:06.113Z,6.87
2019-05-22T10:21:36.485Z,6.60
2019-05-22T10:24:06.684Z,6.50
2019-05-22T10:26:37.375Z,6.53
2019-05-22T10:29:07.575Z,7.37
2019-05-22T10:31:37.871Z,7.53
2019-05-22T10:34:08.176Z,7.17
2019-05-22T10:36:38.647Z,7.60
2019-05-22T10:39:09.207Z,7.75
2019-05-22T10:41:39.983Z,8.03
2019-05-22T10:44:10.195Z,7.92
2019-05-22T10:46:40.809Z,7.00
2019-05-22T10:49:11.003Z,8.18
2019-05-22T10:51:41.203Z,8.20
2019-05-22T10:54:11.487Z,7.73
2019-05-22T10:56:41.665Z,7.85
2019-05-22T10:59:11.876Z,7.40
2019-05-22T11:01:42.171Z,7.15
2019-05-22T11:04:12.913Z,7.23
2019-05-22T11:06:43.252Z,7.25
2019-05-22T11:09:13.528Z,7.85
2019-05-22T11:11:43.711Z,7.60
2019-05-22T11:14:14.400Z,7.15
2019-05-22T11:16:45.129Z,7.85
2019-05-22T11:19:15.756Z,7.45
2019-05-22T11:21:46.400Z,7.90
2019-05-22T11:24:16.605Z,8.20
2019-05-22T11:26:47.530Z,7.90
2019-05-22T11:29:18.003Z,8.40
2019-05-22T11:31:48.226Z,8.18
2019-05-22T11:34:31.783Z,8.63
2019-05-22T11:37:02.138Z,8.75
2019-05-22T11:39:39.541Z,7.90
2019-05-22T11:42:05.004Z,8.65
2019-05-22T11:44:35.241Z,8.10
2019-05-22T11:47:06.876Z,9.58
2019-05-22T11:49:39.237Z,9.28
2019-05-22T11:52:11.099Z,8.78
2019-05-22T11:54:41.460Z,8.43
2019-05-22T11:57:12.483Z,8.83
2019-05-22T11:59:43.973Z,8.65
2019-05-22T12:02:14.451Z,9.83
2019-05-22T12:04:48.499Z,9.00
2019-05-22T12:07:16.668Z,6.53
2019-05-22T12:09:47.570Z,7.70
2019-05-22T12:12:19.088Z,7.08
2019-05-22T12:14:49.880Z,8.40
2019-05-22T12:17:36.674Z,7.67
2019-05-22T12:19:52.451Z,6.70
2019-05-22T12:22:22.669Z,7.13
2019-05-22T12:25:00.634Z,7.43
2019-05-22T12:27:31.766Z,8.23
2019-05-22T12:30:02.825Z,7.97
2019-05-22T12:32:34.081Z,8.18
2019-05-22T12:35:06.110Z,8.00
2019-05-22T12:37:36.560Z,8.15
2019-05-22T12:40:08.223Z,7.97
2019-05-22T12:42:38.688Z,6.92
2019-05-22T12:45:09.636Z,8.13
2019-05-22T12:47:40.836Z,8.50
2019-05-22T12:50:16.926Z,6.80
2019-05-22T12:52:51.069Z,8.45
2019-05-22T12:55:21.416Z,7.40
2019-05-22T12:57:51.888Z,7.50
2019-05-22T13:00:23.790Z,7.37
2019-05-22T13:02:55.127Z,7.67
2019-05-22T13:05:25.332Z,8.08
2019-05-22T13:07:57.112Z,7.25
2019-05-22T13:10:27.941Z,7.28
2019-05-22T13:12:58.172Z,6.87
2019-05-22T13:15:28.520Z,6.35
2019-05-22T13:17:59.779Z,8.20
2019-05-22T13:20:42.077Z,7.33
2019-05-22T13:23:03.359Z,7.40
2019-05-22T13:25:35.980Z,6.83
2019-05-22T13:28:07.198Z,7.20
2019-05-22T13:30:39.053Z,7.55
2019-05-22T13:33:29.083Z,7.42
2019-05-22T13:35:59.595Z,8.17
2019-05-22T13:38:29.788Z,8.10
2019-05-22T13:41:00.082Z,7.87
2019-05-22T13:43:31.108Z,8.07
2019-05-22T13:48:31.149Z,7.87
2019-05-22T13:51:01.412Z,8.67
2019-05-22T13:53:32.580Z,7.67
2019-05-22T13:58:32.627Z,7.95
2019-05-22T14:01:03.742Z,8.75
2019-05-22T14:06:04.739Z,8.40
2019-05-22T14:08:34.927Z,8.58
2019-05-22T14:11:06.187Z,8.50
2019-05-22T14:13:37.343Z,8.83
2019-05-22T14:18:38.116Z,7.70
2019-05-22T14:21:08.319Z,7.85
2019-05-22T14:23:39.366Z,8.20
2019-05-22T14:26:09.583Z,7.12
2019-05-22T14:28:41.668Z,7.60
2019-05-22T14:31:11.939Z,7.05
2019-05-22T14:36:35.934Z,6.65
2019-05-22T14:39:08.427Z,7.45
2019-05-22T14:41:38.633Z,8.68
2019-05-22T14:44:08.908Z,7.90
2019-05-22T14:46:39.246Z,9.60
2019-05-22T14:49:09.450Z,9.00
2019-05-22T14:51:40.111Z,8.17
2019-05-22T14:54:10.776Z,11.50
2019-05-22T14:56:41.643Z,10.55
2019-05-22T14:59:11.930Z,11.80
2019-05-22T15:01:43.556Z,10.80
2019-05-22T15:04:32.856Z,12.93
2019-05-22T15:07:03.527Z,13.58
2019-05-22T15:09:33.740Z,11.78
2019-05-22T15:12:06.387Z,11.57
2019-05-22T15:14:36.653Z,12.60
2019-05-22T15:17:28.625Z,12.93
2019-05-22T15:20:08.503Z,13.25
2019-05-22T15:22:38.785Z,12.03
2019-05-22T15:25:14.572Z,12.23
2019-05-22T15:27:45.251Z,11.50
2019-05-22T15:30:15.918Z,11.10
2019-05-22T15:32:46.120Z,11.48
2019-05-22T15:35:17.157Z,10.13
2019-05-22T15:37:48.343Z,6.92
2019-05-22T15:40:19.242Z,9.38
2019-05-22T15:42:49.534Z,8.93
2019-05-22T15:45:25.444Z,9.60
2019-05-22T15:48:02.420Z,8.58
2019-05-22T15:50:53.620Z,7.70
2019-05-22T15:53:23.877Z,7.67
2019-05-22T15:55:54.427Z,8.28
2019-05-22T15:58:25.978Z,8.33
2019-05-22T16:00:56.187Z,8.23
2019-05-22T16:03:28.118Z,8.50
2019-05-22T16:05:58.764Z,6.42
2019-05-22T16:08:30.462Z,6.60
2019-05-22T16:11:01.752Z,6.60
2019-05-22T16:16:04.245Z,6.67
2019-05-22T16:18:35.553Z,6.78
2019-05-22T16:23:35.992Z,8.30
2019-05-22T16:26:09.480Z,8.78
2019-05-22T16:28:40.835Z,8.90
2019-05-22T16:31:12.500Z,9.13
2019-05-22T16:33:43.918Z,8.35
2019-05-22T16:38:45.332Z,5.87
2019-05-22T16:41:16.503Z,5.80
2019-05-22T16:43:49.969Z,5.30
2019-05-22T16:46:37.221Z,5.47
2019-05-22T16:49:12.742Z,4.67
2019-05-22T16:51:43.333Z,5.65
2019-05-22T16:54:14.085Z,5.70
2019-05-22T16:56:44.433Z,6.87
2019-05-22T16:59:36.648Z,6.20
2019-05-22T17:02:11.966Z,5.67
2019-05-22T17:05:02.334Z,6.22
2019-05-22T17:07:33.980Z,5.45
2019-05-22T17:10:07.325Z,5.70
2019-05-22T17:12:42.096Z,4.87
2019-05-22T17:15:14.368Z,6.42
2019-05-22T17:18:02.930Z,5.55
2019-05-22T17:20:34.947Z,5.72
2019-05-22T17:26:19.769Z,8.35
2019-05-22T17:29:25.197Z,8.43
2019-05-22T17:31:55.603Z,9.38
2019-05-22T17:34:45.646Z,10.10
2019-05-22T17:37:33.560Z,11.25
2019-05-22T17:40:27.094Z,11.40
2019-05-22T17:43:04.099Z,16.27
2019-05-22T17:45:44.979Z,16.87
2019-05-22T17:48:22.621Z,16.10
2019-05-22T17:50:57.830Z,15.88
2019-05-22T17:53:33.327Z,15.10
2019-05-22T17:56:13.464Z,13.25
2019-05-22T17:58:47.316Z,12.05
2019-05-22T18:01:42.208Z,11.43
2019-05-22T18:04:12.469Z,9.93
2019-05-22T18:06:45.483Z,8.25
2019-05-22T18:09:40.251Z,6.65
2019-05-22T18:12:22.001Z,6.70
2019-05-22T18:15:04.584Z,6.67
2019-05-22T18:17:39.794Z,5.70
2019-05-22T18:20:11.612Z,5.90
2019-05-22T18:22:42.531Z,5.95
2019-05-22T18:25:13.193Z,5.40
2019-05-22T18:27:44.379Z,5.00
2019-05-22T18:30:16.288Z,5.67
2019-05-22T18:32:46.469Z,5.15
2019-05-22T18:35:16.681Z,5.60
2019-05-22T18:38:22.736Z,5.80
2019-05-22T18:40:59.589Z,5.72
2019-05-22T18:43:33.127Z,6.12
2019-05-22T18:46:03.821Z,5.97
2019-05-22T18:48:48.118Z,6.67
2019-05-22T18:51:19.407Z,6.97
2019-05-22T18:53:51.115Z,6.85
2019-05-22T18:56:21.330Z,6.77
2019-05-22T18:59:03.339Z,7.37
2019-05-22T19:01:43.171Z,7.05
2019-05-22T19:04:35.585Z,8.45
2019-05-22T19:07:05.942Z,7.83
2019-05-22T19:12:16.945Z,9.23
2019-05-22T19:14:55.825Z,9.50
2019-05-22T19:17:35.607Z,10.72
2019-05-22T19:23:06.751Z,10.23
2019-05-22T19:25:37.599Z,10.68
2019-05-22T19:28:09.876Z,11.00
2019-05-22T19:30:52.400Z,10.80
2019-05-22T19:33:25.092Z,12.45
2019-05-22T19:36:29.301Z,11.73
2019-05-22T19:39:11.407Z,11.25
2019-05-22T19:42:15.192Z,12.40
2019-05-22T19:44:58.678Z,12.30
2019-05-22T19:47:35.016Z,12.40
2019-05-22T19:50:32.608Z,11.63
2019-05-22T19:53:19.280Z,10.90
2019-05-22T19:56:16.829Z,10.58
2019-05-22T19:58:47.162Z,11.12
2019-05-22T20:01:32.825Z,10.23
2019-05-22T20:04:04.348Z,11.08
2019-05-22T20:06:38.446Z,10.25
2019-05-22T20:09:11.830Z,11.45
2019-05-22T20:11:42.685Z,11.30
2019-05-22T20:14:19.010Z,10.48
2019-05-22T20:16:49.578Z,11.80
2019-05-22T20:19:20.324Z,11.03
2019-05-22T20:21:53.948Z,11.88
2019-05-22T20:24:25.393Z,11.57
2019-05-22T20:27:10.041Z,13.03
2019-05-22T20:29:36.668Z,12.37
2019-05-22T20:32:08.592Z,12.47
2019-05-22T20:34:39.124Z,11.08
2019-05-22T20:37:30.456Z,10.88
2019-05-22T20:40:09.926Z,10.78
2019-05-22T20:42:42.873Z,11.28
2019-05-22T20:45:20.535Z,11.22
2019-05-22T20:48:17.633Z,11.65
2019-05-22T20:50:58.675Z,10.98
2019-05-22T20:57:21.351Z,10.30
2019-05-22T21:02:21.888Z,9.50
2019-05-22T21:04:53.864Z,9.75
2019-05-22T21:07:33.191Z,9.90
2019-05-22T21:10:08.348Z,10.48
2019-05-22T21:12:45.883Z,10.35
2019-05-22T21:15:23.670Z,10.38
2019-05-22T21:18:07.768Z,9.55
2019-05-22T21:20:54.906Z,10.23
2019-05-22T21:23:28.617Z,10.03
2019-05-22T21:26:00.513Z,10.13
2019-05-22T21:28:49.999Z,10.15
2019-05-22T21:31:24.745Z,10.35
2019-05-22T21:33:55.287Z,10.32
2019-05-22T21:36:27.296Z,9.88
2019-05-22T21:38:57.492Z,10.08
2019-05-22T21:41:28.355Z,10.32
2019-05-22T21:43:58.738Z,10.82
2019-05-22T21:46:29.501Z,10.53
2019-05-22T21:49:09.628Z,10.23
2019-05-22T21:51:41.516Z,10.05
2019-05-22T21:54:11.992Z,11.08
2019-05-22T21:56:42.873Z,11.33
2019-05-22T21:59:25.497Z,9.75
2019-05-22T22:02:08.750Z,10.48
2019-05-22T22:04:48.639Z,9.98
2019-05-22T22:07:24.738Z,9.80
2019-05-22T22:10:03.391Z,10.50
2019-05-22T22:12:36.431Z,10.73
2019-05-22T22:15:08.644Z,10.43
2019-05-22T22:18:19.990Z,10.38
2019-05-22T22:21:01.868Z,10.58
2019-05-22T22:23:48.122Z,11.05
2019-05-22T22:26:25.937Z,10.78
2019-05-22T22:28:55.741Z,11.40
2019-05-22T22:31:41.131Z,11.70
2019-05-22T22:34:31.723Z,12.10
2019-05-22T22:37:11.029Z,12.50
2019-05-22T22:39:43.957Z,11.15
2019-05-22T22:42:22.007Z,12.75
2019-05-22T22:44:55.271Z,11.35
2019-05-22T22:47:30.262Z,11.45
2019-05-22T22:50:19.771Z,11.53
2019-05-22T22:52:48.623Z,12.25
2019-05-22T22:55:19.018Z,11.97
2019-05-22T22:58:25.905Z,11.68
2019-05-22T23:00:57.356Z,11.65
2019-05-22T23:03:27.860Z,11.43
2019-05-22T23:05:58.487Z,12.45
2019-05-22T23:08:31.835Z,11.48
2019-05-22T23:11:03.296Z,12.18
2019-05-22T23:13:33.753Z,12.90
2019-05-22T23:16:04.535Z,12.40
2019-05-22T23:18:45.430Z,12.20
2019-05-22T23:21:16.410Z,12.50
2019-05-22T23:23:46.953Z,13.03
2019-05-22T23:26:17.186Z,13.40
2019-05-22T23:28:50.487Z,13.48
2019-05-22T23:31:21.249Z,13.88
2019-05-22T23:33:51.960Z,13.90
2019-05-22T23:36:22.954Z,13.53
2019-05-22T23:38:54.340Z,14.75
2019-05-22T23:43:54.487Z,15.38
2019-05-22T23:46:26.317Z,15.68
2019-05-22T23:48:59.618Z,14.87
2019-05-22T23:51:30.715Z,15.55
2019-05-22T23:54:01.559Z,15.58
2019-05-22T23:56:34.218Z,16.42
2019-05-22T23:59:04.794Z,13.85
